Rome, Italy
Current Conditions -  °F | °C
As of 4:45 AM on Friday 19 Dec 2014 (Local Time) from LIRA Reporting Station
Clear Clear  
Wind Chill: 41°   Ceiling: Unl
Heat Index: 41°   Visibility: 6mi
Dew Point: 39°   Wind: 2mph
Humidity: 93%   Direction: 60°ENE
Pressure: 30.21"   Gusts: NA
Location:  41.9°N, 12.48°E
Report Text: LIRA 190345Z 06002KT CAVOK 05/04 Q1023
Loading
Personal Weather Stations






























Interactive Weather Map New forecast layout! Learn more

10-Day Weather Forecast

Advertisements
Track Severe Weather on mobile